createdAt,value
2023-01-21T00:01:01.579Z,36.51
2023-01-21T00:03:28.564Z,36.56
2023-01-21T00:05:55.698Z,36.70
2023-01-21T00:08:22.808Z,36.43
2023-01-21T00:10:49.761Z,36.45
2023-01-21T00:13:16.757Z,36.36
2023-01-21T00:15:43.708Z,36.64
2023-01-21T00:18:10.694Z,36.36
2023-01-21T00:20:38.089Z,36.13
2023-01-21T00:23:05.301Z,36.43
2023-01-21T00:25:32.254Z,36.25
2023-01-21T00:28:00.433Z,36.13
2023-01-21T00:30:27.454Z,36.22
2023-01-21T00:32:54.371Z,36.52
2023-01-21T00:35:21.539Z,36.38
2023-01-21T00:37:51.171Z,36.15
2023-01-21T00:40:18.460Z,36.14
2023-01-21T00:42:45.678Z,36.52
2023-01-21T00:45:12.731Z,36.14
2023-01-21T00:47:40.095Z,36.39
2023-01-21T00:50:07.789Z,36.23
2023-01-21T00:52:34.890Z,36.29
2023-01-21T00:55:01.882Z,36.75
2023-01-21T00:57:28.971Z,36.85
2023-01-21T00:59:56.109Z,36.91
2023-01-21T01:02:23.270Z,36.80
2023-01-21T01:04:50.248Z,36.85
2023-01-21T01:07:17.300Z,37.32
2023-01-21T01:09:44.242Z,37.23
2023-01-21T01:12:11.415Z,37.27
2023-01-21T01:14:38.346Z,37.38
2023-01-21T01:17:05.400Z,37.84
2023-01-21T01:19:32.327Z,38.14
2023-01-21T01:21:59.250Z,38.23
2023-01-21T01:24:26.290Z,38.32
2023-01-21T01:26:53.210Z,38.23
2023-01-21T01:29:20.046Z,38.41
2023-01-21T01:31:47.040Z,38.25
2023-01-21T01:34:14.171Z,38.65
2023-01-21T01:36:41.151Z,38.68
2023-01-21T01:39:08.260Z,38.49
2023-01-21T01:41:35.810Z,38.91
2023-01-21T01:44:04.309Z,38.78
2023-01-21T01:46:32.726Z,39.01
2023-01-21T01:49:02.763Z,39.06
2023-01-21T01:51:31.956Z,39.16
2023-01-21T01:53:59.621Z,39.06
2023-01-21T01:56:27.282Z,39.03
2023-01-21T01:58:54.386Z,39.10
2023-01-21T02:01:21.285Z,38.92
2023-01-21T02:03:54.820Z,38.97
2023-01-21T02:06:21.717Z,39.17
2023-01-21T02:08:48.750Z,39.15
2023-01-21T02:11:17.877Z,39.01
2023-01-21T02:13:47.166Z,38.84
2023-01-21T02:16:14.422Z,38.85
2023-01-21T02:18:48.107Z,39.24
2023-01-21T02:21:18.247Z,39.45
2023-01-21T02:23:48.227Z,39.39
2023-01-21T02:26:18.204Z,39.13
2023-01-21T02:28:48.301Z,39.26
2023-01-21T02:31:16.732Z,38.97
2023-01-21T02:33:46.864Z,39.46
2023-01-21T02:36:17.080Z,39.47
2023-01-21T02:38:47.536Z,39.21
2023-01-21T02:41:14.802Z,39.64
2023-01-21T02:43:44.854Z,39.69
2023-01-21T02:46:16.823Z,39.65
2023-01-21T02:48:48.702Z,39.59
2023-01-21T02:51:18.588Z,39.64
2023-01-21T02:53:45.683Z,39.58
2023-01-21T02:56:14.361Z,39.87
2023-01-21T02:58:44.644Z,39.77
2023-01-21T03:01:14.697Z,39.82
2023-01-21T03:03:48.958Z,39.74
2023-01-21T03:06:18.939Z,39.74
2023-01-21T03:08:52.255Z,40.04
2023-01-21T03:11:20.580Z,39.77
2023-01-21T03:13:53.546Z,40.10
2023-01-21T03:16:27.651Z,40.12
2023-01-21T03:18:55.485Z,39.88
2023-01-21T03:21:29.835Z,39.85
2023-01-21T03:23:58.869Z,39.75
2023-01-21T03:26:28.772Z,40.29
2023-01-21T03:28:58.754Z,39.96
2023-01-21T03:31:28.663Z,39.98
2023-01-21T03:33:57.392Z,40.16
2023-01-21T03:36:33.006Z,40.41
2023-01-21T03:39:01.614Z,40.51
2023-01-21T03:41:33.863Z,40.12
2023-01-21T03:44:01.042Z,40.53
2023-01-21T03:46:28.282Z,40.69
2023-01-21T03:48:58.139Z,40.44
2023-01-21T03:51:27.899Z,40.61
2023-01-21T03:53:57.862Z,40.62
2023-01-21T03:56:25.541Z,40.95
2023-01-21T03:58:52.514Z,40.74
2023-01-21T04:01:19.723Z,41.08
2023-01-21T04:03:46.733Z,40.96
2023-01-21T04:06:15.895Z,40.86
2023-01-21T04:08:42.914Z,40.95
2023-01-21T04:11:09.800Z,40.93
2023-01-21T04:13:43.457Z,40.88
2023-01-21T04:16:10.353Z,41.10
2023-01-21T04:18:37.280Z,40.66
2023-01-21T04:21:04.210Z,40.87
2023-01-21T04:23:31.205Z,40.89
2023-01-21T04:25:58.047Z,40.91
2023-01-21T04:28:25.038Z,40.89
2023-01-21T04:30:51.999Z,41.32
2023-01-21T04:33:19.108Z,41.23
2023-01-21T04:35:46.087Z,40.78
2023-01-21T04:38:13.377Z,40.99
2023-01-21T04:40:40.268Z,41.36
2023-01-21T04:43:07.165Z,41.11
2023-01-21T04:45:34.101Z,41.21
2023-01-21T04:48:01.052Z,41.42
2023-01-21T04:50:28.203Z,41.92
2023-01-21T04:52:55.163Z,41.80
2023-01-21T04:55:23.650Z,41.61
2023-01-21T04:57:51.811Z,41.83
2023-01-21T05:00:19.026Z,41.64
2023-01-21T05:02:46.088Z,41.69
2023-01-21T05:05:13.038Z,42.02
2023-01-21T05:07:39.969Z,41.62
2023-01-21T05:10:07.041Z,42.17
2023-01-21T05:12:33.996Z,42.02
2023-01-21T05:15:00.885Z,42.01
2023-01-21T05:17:27.827Z,41.80
2023-01-21T05:19:54.775Z,42.14
2023-01-21T05:22:21.635Z,41.81
2023-01-21T05:24:48.576Z,42.02
2023-01-21T05:27:16.284Z,41.83
2023-01-21T05:29:43.173Z,41.94
2023-01-21T05:32:10.584Z,42.08
2023-01-21T05:34:37.448Z,42.16
2023-01-21T05:37:04.309Z,42.15
2023-01-21T05:39:31.209Z,42.62
2023-01-21T05:41:58.085Z,42.48
2023-01-21T05:44:25.015Z,42.91
2023-01-21T05:46:51.891Z,42.61
2023-01-21T05:49:18.881Z,42.37
2023-01-21T05:51:45.830Z,42.55
2023-01-21T05:54:12.658Z,42.30
2023-01-21T05:56:39.701Z,42.37
2023-01-21T05:59:06.617Z,42.36
2023-01-21T06:01:33.457Z,42.35
2023-01-21T06:04:00.298Z,42.33
2023-01-21T06:06:27.190Z,42.39
2023-01-21T06:08:54.154Z,42.08
2023-01-21T06:11:20.991Z,42.18
2023-01-21T06:13:47.922Z,42.41
2023-01-21T06:16:14.804Z,42.25
2023-01-21T06:18:41.645Z,42.20
2023-01-21T06:21:08.616Z,42.12
2023-01-21T06:23:35.456Z,42.61
2023-01-21T06:26:02.623Z,42.58
2023-01-21T06:28:29.768Z,42.51
2023-01-21T06:30:56.826Z,42.44
2023-01-21T06:33:24.307Z,42.36
2023-01-21T06:35:51.154Z,42.29
2023-01-21T06:38:18.059Z,42.21
2023-01-21T06:40:44.954Z,42.35
2023-01-21T06:43:11.813Z,42.36
2023-01-21T06:45:38.851Z,42.47
2023-01-21T06:48:05.833Z,42.59
2023-01-21T06:50:32.777Z,42.65
2023-01-21T06:52:59.705Z,42.25
2023-01-21T06:55:26.607Z,42.54
2023-01-21T06:57:53.505Z,42.40
2023-01-21T07:00:20.734Z,42.65
2023-01-21T07:02:47.753Z,42.76
2023-01-21T07:05:15.656Z,42.65
2023-01-21T07:07:42.768Z,42.80
2023-01-21T07:10:10.251Z,42.57
2023-01-21T07:12:37.126Z,42.55
2023-01-21T07:15:04.487Z,42.71
2023-01-21T07:17:31.461Z,42.63
2023-01-21T07:19:58.499Z,42.69
2023-01-21T07:22:25.456Z,42.75
2023-01-21T07:24:52.303Z,42.68
2023-01-21T07:27:19.216Z,42.67
2023-01-21T07:29:46.070Z,42.54
2023-01-21T07:32:13.127Z,42.89
2023-01-21T07:34:39.999Z,43.06
2023-01-21T07:37:06.888Z,42.91
2023-01-21T07:39:33.839Z,42.52
2023-01-21T07:42:00.718Z,42.80
2023-01-21T07:44:27.989Z,42.69
2023-01-21T07:46:55.020Z,43.08
2023-01-21T07:49:22.023Z,42.80
2023-01-21T07:51:48.989Z,43.13
2023-01-21T07:54:15.969Z,43.08
2023-01-21T07:56:42.965Z,43.14
2023-01-21T07:59:10.650Z,43.78
2023-01-21T08:01:37.629Z,43.87
2023-01-21T08:04:04.670Z,44.06
2023-01-21T08:06:31.580Z,43.90
2023-01-21T08:08:58.502Z,43.77
2023-01-21T08:11:25.450Z,43.87
2023-01-21T08:13:52.349Z,44.03
2023-01-21T08:16:19.390Z,44.34
2023-01-21T08:18:46.247Z,44.40
2023-01-21T08:21:13.163Z,44.20
2023-01-21T08:23:40.064Z,43.86
2023-01-21T08:26:06.998Z,44.15
2023-01-21T08:28:34.338Z,43.99
2023-01-21T08:31:04.338Z,44.09
2023-01-21T08:33:31.385Z,43.76
2023-01-21T08:36:00.297Z,43.85
2023-01-21T08:38:27.248Z,43.88
2023-01-21T08:40:54.163Z,43.53
2023-01-21T08:43:21.140Z,43.41
2023-01-21T08:45:48.233Z,43.26
2023-01-21T08:48:15.274Z,43.25
2023-01-21T08:50:42.216Z,43.51
2023-01-21T08:53:10.281Z,43.41
2023-01-21T08:55:37.248Z,43.67
2023-01-21T08:58:04.663Z,43.74
2023-01-21T09:00:31.824Z,43.50
2023-01-21T09:02:59.435Z,43.70
2023-01-21T09:05:26.442Z,43.79
2023-01-21T09:07:53.414Z,44.04
2023-01-21T09:10:23.707Z,43.96
2023-01-21T09:12:50.643Z,43.56
2023-01-21T09:15:18.047Z,43.86
2023-01-21T09:17:45.311Z,43.88
2023-01-21T09:20:12.854Z,43.75
2023-01-21T09:22:39.830Z,43.38
2023-01-21T09:25:10.587Z,43.31
2023-01-21T09:27:38.389Z,42.86
2023-01-21T09:30:05.872Z,43.14
2023-01-21T09:32:32.930Z,43.19
2023-01-21T09:34:59.934Z,43.46
2023-01-21T09:37:26.955Z,42.90
2023-01-21T09:39:54.103Z,42.31
2023-01-21T09:42:25.009Z,41.93
2023-01-21T09:44:53.174Z,42.06
2023-01-21T09:47:21.523Z,41.85
2023-01-21T09:49:51.608Z,41.45
2023-01-21T09:52:21.759Z,41.21
2023-01-21T09:54:49.072Z,41.09
2023-01-21T09:57:16.516Z,41.24
2023-01-21T09:59:49.514Z,41.21
2023-01-21T10:02:22.294Z,40.93
2023-01-21T10:04:53.369Z,40.78
2023-01-21T10:07:28.154Z,41.32
2023-01-21T10:10:02.052Z,41.78
2023-01-21T10:12:29.387Z,41.89
2023-01-21T10:14:59.587Z,41.72
2023-01-21T10:17:28.063Z,41.39
2023-01-21T10:20:02.936Z,40.82
2023-01-21T10:22:30.166Z,41.08
2023-01-21T10:24:57.525Z,40.78
2023-01-21T10:27:25.602Z,40.73
2023-01-21T10:29:57.954Z,40.18
2023-01-21T10:32:26.508Z,40.00
2023-01-21T10:34:54.505Z,39.63
2023-01-21T10:37:24.660Z,39.10
2023-01-21T10:39:54.750Z,38.91
2023-01-21T10:42:25.071Z,39.00
2023-01-21T10:44:52.425Z,38.58
2023-01-21T10:47:22.485Z,38.41
2023-01-21T10:49:50.982Z,38.29
2023-01-21T10:52:18.336Z,38.33
2023-01-21T10:54:48.487Z,38.06
2023-01-21T10:57:17.039Z,38.26
2023-01-21T10:59:44.221Z,37.78
2023-01-21T11:02:14.440Z,37.77
2023-01-21T11:04:42.463Z,37.58
2023-01-21T11:07:12.272Z,37.56
2023-01-21T11:09:40.631Z,37.63
2023-01-21T11:12:10.412Z,37.64
2023-01-21T11:14:37.441Z,37.77
2023-01-21T11:17:08.668Z,37.53
2023-01-21T11:19:35.981Z,37.24
2023-01-21T11:22:06.427Z,37.44
2023-01-21T11:24:43.356Z,37.68
2023-01-21T11:27:19.529Z,37.06
2023-01-21T11:29:48.345Z,37.44
2023-01-21T11:32:24.579Z,37.25
2023-01-21T11:34:56.033Z,37.04
2023-01-21T11:37:26.444Z,37.07
2023-01-21T11:39:57.305Z,37.00
2023-01-21T11:42:24.808Z,36.93
2023-01-21T11:44:55.276Z,36.68
2023-01-21T11:47:25.595Z,36.90
2023-01-21T11:49:53.613Z,36.36
2023-01-21T11:52:20.997Z,36.41
2023-01-21T11:54:48.406Z,36.78
2023-01-21T11:57:19.111Z,36.49
2023-01-21T11:59:47.509Z,36.49
2023-01-21T12:02:17.693Z,36.47
2023-01-21T12:04:47.457Z,36.18
2023-01-21T12:07:18.604Z,37.08
2023-01-21T12:09:49.371Z,33.44
2023-01-21T12:12:26.475Z,32.21
2023-01-21T12:14:55.878Z,33.92
2023-01-21T12:17:30.747Z,34.23
2023-01-21T12:19:58.080Z,34.88
2023-01-21T12:22:32.826Z,35.09
2023-01-21T12:25:00.294Z,35.22
2023-01-21T12:27:30.584Z,35.69
2023-01-21T12:30:04.508Z,35.71
2023-01-21T12:32:35.083Z,36.05
2023-01-21T12:35:09.873Z,35.95
2023-01-21T12:37:40.130Z,36.22
2023-01-21T12:40:10.473Z,36.22
2023-01-21T12:42:40.809Z,36.40
2023-01-21T12:45:11.945Z,36.48
2023-01-21T12:47:40.956Z,36.16
2023-01-21T12:50:11.581Z,36.21
2023-01-21T12:52:40.323Z,36.50
2023-01-21T12:55:20.180Z,36.54
2023-01-21T12:57:56.277Z,36.19
2023-01-21T13:00:26.600Z,36.19
2023-01-21T13:02:57.430Z,36.14
2023-01-21T13:05:27.621Z,36.20
2023-01-21T13:07:55.296Z,36.27
2023-01-21T13:10:22.943Z,36.56
2023-01-21T13:12:55.540Z,36.21
2023-01-21T13:15:25.238Z,36.48
2023-01-21T13:17:56.081Z,36.55
2023-01-21T13:20:23.860Z,36.45
2023-01-21T13:22:52.190Z,36.52
2023-01-21T13:25:19.631Z,36.49
2023-01-21T13:27:49.706Z,36.33
2023-01-21T13:30:17.541Z,36.01
2023-01-21T13:32:53.807Z,36.42
2023-01-21T13:35:22.235Z,36.11
2023-01-21T13:37:49.763Z,36.24
2023-01-21T13:40:20.078Z,36.09
2023-01-21T13:42:49.151Z,36.17
2023-01-21T13:45:19.315Z,35.90
2023-01-21T13:47:54.260Z,35.92
2023-01-21T13:50:22.954Z,35.67
2023-01-21T13:52:50.638Z,35.71
2023-01-21T13:55:21.118Z,35.54
2023-01-21T13:58:01.581Z,36.14
2023-01-21T14:00:32.128Z,35.65
2023-01-21T14:03:05.086Z,36.07
2023-01-21T14:05:36.897Z,35.88
2023-01-21T14:08:07.126Z,36.26
2023-01-21T14:10:36.534Z,36.95
2023-01-21T14:13:06.783Z,36.58
2023-01-21T14:15:37.103Z,36.60
2023-01-21T14:18:07.214Z,37.15
2023-01-21T14:20:38.450Z,37.39
2023-01-21T14:23:18.708Z,37.31
2023-01-21T14:25:49.214Z,37.19
2023-01-21T14:28:19.668Z,37.24
2023-01-21T14:30:48.282Z,37.29
2023-01-21T14:33:22.310Z,37.39
2023-01-21T14:35:49.828Z,37.12
2023-01-21T14:38:18.315Z,37.37
2023-01-21T14:40:49.437Z,37.06
2023-01-21T14:43:19.602Z,36.64
2023-01-21T14:45:49.804Z,36.63
2023-01-21T14:48:20.129Z,36.71
2023-01-21T14:50:52.016Z,36.98
2023-01-21T14:53:22.236Z,36.58
2023-01-21T14:55:52.243Z,36.65
2023-01-21T14:58:23.354Z,36.49
2023-01-21T15:00:51.262Z,36.47
2023-01-21T15:03:27.564Z,36.31
2023-01-21T15:05:57.623Z,36.31
2023-01-21T15:08:25.934Z,35.96
2023-01-21T15:10:56.358Z,35.83
2023-01-21T15:13:26.474Z,35.69
2023-01-21T15:15:56.606Z,35.62
2023-01-21T15:18:25.562Z,35.36
2023-01-21T15:20:59.020Z,35.68
2023-01-21T15:23:29.338Z,35.62
2023-01-21T15:25:59.457Z,35.51
2023-01-21T15:28:26.789Z,35.43
2023-01-21T15:30:59.312Z,35.07
2023-01-21T15:33:27.343Z,35.50
2023-01-21T15:35:54.749Z,35.37
2023-01-21T15:38:21.964Z,35.17
2023-01-21T15:41:07.539Z,35.47
2023-01-21T15:43:37.805Z,35.50
2023-01-21T15:46:07.954Z,35.27
2023-01-21T15:48:42.184Z,35.21
2023-01-21T15:51:12.747Z,35.05
2023-01-21T15:53:43.279Z,35.13
2023-01-21T15:56:10.712Z,35.47
2023-01-21T15:58:39.147Z,35.41
2023-01-21T16:01:06.655Z,35.18
2023-01-21T16:03:36.972Z,35.07
2023-01-21T16:06:07.201Z,35.25
2023-01-21T16:08:41.215Z,35.48
2023-01-21T16:11:11.936Z,35.13
2023-01-21T16:13:42.705Z,35.33
2023-01-21T16:16:13.269Z,35.33
2023-01-21T16:18:43.705Z,35.47
2023-01-21T16:21:12.385Z,35.31
2023-01-21T16:23:42.227Z,35.04
2023-01-21T16:26:09.438Z,35.11
2023-01-21T16:28:39.571Z,35.23
2023-01-21T16:31:06.849Z,34.97
2023-01-21T16:33:33.963Z,34.98
2023-01-21T16:36:05.282Z,35.00
2023-01-21T16:38:33.323Z,35.38
2023-01-21T16:41:01.806Z,35.42
2023-01-21T16:43:29.160Z,35.03
2023-01-21T16:45:57.530Z,35.51
2023-01-21T16:48:26.479Z,34.64
2023-01-21T16:50:54.887Z,35.21
2023-01-21T16:53:23.408Z,35.25
2023-01-21T16:55:53.664Z,35.28
2023-01-21T16:58:22.386Z,35.66
2023-01-21T17:00:59.043Z,35.44
2023-01-21T17:03:29.405Z,35.71
2023-01-21T17:05:59.522Z,35.64
2023-01-21T17:08:27.043Z,35.10
2023-01-21T17:10:59.818Z,34.14
2023-01-21T17:13:28.398Z,34.12
2023-01-21T17:15:58.601Z,34.59
2023-01-21T17:18:29.396Z,34.68
2023-01-21T17:20:59.736Z,35.49
2023-01-21T17:23:30.057Z,35.45
2023-01-21T17:26:02.509Z,35.47
2023-01-21T17:28:32.984Z,35.99
2023-01-21T17:31:03.298Z,35.73
2023-01-21T17:33:31.335Z,35.77
2023-01-21T17:36:01.681Z,36.04
2023-01-21T17:38:29.771Z,36.05
2023-01-21T17:41:01.579Z,35.83
2023-01-21T17:43:28.749Z,35.95
2023-01-21T17:45:56.827Z,35.93
2023-01-21T17:48:27.082Z,35.93
2023-01-21T17:50:54.528Z,36.05
2023-01-21T17:53:25.782Z,36.25
2023-01-21T17:55:55.905Z,36.54
2023-01-21T17:58:26.106Z,36.13
2023-01-21T18:00:53.334Z,36.53
2023-01-21T18:03:20.543Z,36.35
2023-01-21T18:05:47.786Z,36.41
2023-01-21T18:08:16.174Z,36.63
2023-01-21T18:10:43.871Z,36.27
2023-01-21T18:13:14.301Z,36.37
2023-01-21T18:15:43.308Z,36.66
2023-01-21T18:18:13.471Z,36.45
2023-01-21T18:20:40.486Z,36.76
2023-01-21T18:23:09.962Z,36.45
2023-01-21T18:25:37.662Z,36.90
2023-01-21T18:28:06.715Z,36.92
2023-01-21T18:30:33.829Z,36.69
2023-01-21T18:33:00.907Z,36.97
2023-01-21T18:35:29.879Z,36.95
2023-01-21T18:37:57.111Z,36.99
2023-01-21T18:40:24.346Z,36.68
2023-01-21T18:42:53.015Z,36.66
2023-01-21T18:45:21.175Z,37.06
2023-01-21T18:47:49.302Z,36.92
2023-01-21T18:50:18.631Z,36.94
2023-01-21T18:52:45.797Z,37.34
2023-01-21T18:55:13.696Z,37.18
2023-01-21T18:57:42.475Z,37.23
2023-01-21T19:00:13.464Z,37.44
2023-01-21T19:02:40.550Z,37.14
2023-01-21T19:05:07.972Z,37.41
2023-01-21T19:07:35.611Z,37.30
2023-01-21T19:10:02.884Z,37.59
2023-01-21T19:12:29.969Z,37.21
2023-01-21T19:14:57.171Z,37.28
2023-01-21T19:17:26.433Z,37.45
2023-01-21T19:19:53.971Z,37.36
2023-01-21T19:22:21.275Z,37.59
2023-01-21T19:24:49.190Z,37.72
2023-01-21T19:27:18.307Z,37.38
2023-01-21T19:29:45.445Z,37.30
2023-01-21T19:32:15.215Z,37.30
2023-01-21T19:34:42.845Z,37.57
2023-01-21T19:37:13.176Z,37.57
2023-01-21T19:39:43.254Z,37.56
2023-01-21T19:42:11.723Z,37.54
2023-01-21T19:44:39.916Z,37.45
2023-01-21T19:47:11.404Z,37.46
2023-01-21T19:49:38.582Z,37.54
2023-01-21T19:52:06.221Z,37.73
2023-01-21T19:54:33.442Z,37.60
2023-01-21T19:57:00.509Z,37.73
2023-01-21T19:59:27.652Z,37.76
2023-01-21T20:01:55.117Z,38.00
2023-01-21T20:04:22.373Z,37.75
2023-01-21T20:06:49.851Z,38.00
2023-01-21T20:09:19.212Z,37.90
2023-01-21T20:11:46.386Z,37.93
2023-01-21T20:14:13.591Z,38.06
2023-01-21T20:16:43.908Z,37.96
2023-01-21T20:19:12.342Z,37.89
2023-01-21T20:21:54.766Z,38.31
2023-01-21T20:24:30.644Z,38.29
2023-01-21T20:26:58.399Z,38.00
2023-01-21T20:29:27.451Z,38.30
2023-01-21T20:31:54.873Z,38.14
2023-01-21T20:34:22.035Z,38.34
2023-01-21T20:36:51.574Z,38.39
2023-01-21T20:39:18.531Z,38.02
2023-01-21T20:41:45.637Z,38.37
2023-01-21T20:44:12.664Z,38.29
2023-01-21T20:46:40.214Z,38.34
2023-01-21T20:49:07.304Z,38.10
2023-01-21T20:51:34.789Z,38.07
2023-01-21T20:54:02.318Z,38.31
2023-01-21T20:56:31.414Z,38.07
2023-01-21T20:58:58.642Z,38.20
2023-01-21T21:01:26.463Z,38.09
2023-01-21T21:03:54.971Z,38.14
2023-01-21T21:06:24.228Z,38.44
2023-01-21T21:08:51.426Z,38.14
2023-01-21T21:11:19.172Z,38.38
2023-01-21T21:13:49.260Z,38.42
2023-01-21T21:16:16.611Z,38.12
2023-01-21T21:18:44.086Z,38.05
2023-01-21T21:21:12.871Z,38.35
2023-01-21T21:23:40.206Z,38.10
2023-01-21T21:26:15.512Z,37.91
2023-01-21T21:28:43.411Z,37.77
2023-01-21T21:31:12.547Z,37.92
2023-01-21T21:33:39.742Z,37.81
2023-01-21T21:36:10.953Z,37.61
2023-01-21T21:38:38.407Z,37.46
2023-01-21T21:41:25.325Z,37.54
2023-01-21T21:43:52.357Z,37.45
2023-01-21T21:46:22.426Z,37.77
2023-01-21T21:48:49.517Z,37.34
2023-01-21T21:51:19.877Z,37.47
2023-01-21T21:53:47.421Z,37.33
2023-01-21T21:56:16.903Z,37.38
2023-01-21T21:58:44.189Z,37.21
2023-01-21T22:01:13.194Z,37.33
2023-01-21T22:03:40.504Z,37.30
2023-01-21T22:06:08.139Z,36.98
2023-01-21T22:08:36.901Z,36.95
2023-01-21T22:11:05.762Z,37.28
2023-01-21T22:13:34.644Z,36.96
2023-01-21T22:16:02.127Z,37.27
2023-01-21T22:18:30.335Z,37.01
2023-01-21T22:21:00.452Z,37.22
2023-01-21T22:23:30.608Z,36.96
2023-01-21T22:25:58.583Z,36.78
2023-01-21T22:28:25.585Z,36.91
2023-01-21T22:30:52.761Z,37.09
2023-01-21T22:33:21.891Z,36.91
2023-01-21T22:35:49.427Z,36.93
2023-01-21T22:38:16.571Z,36.67
2023-01-21T22:40:44.100Z,36.59
2023-01-21T22:43:12.112Z,36.55
2023-01-21T22:45:41.109Z,36.68
2023-01-21T22:48:08.347Z,36.78
2023-01-21T22:50:35.403Z,36.72
2023-01-21T22:53:02.969Z,36.69
2023-01-21T22:55:30.148Z,36.71
2023-01-21T22:57:57.575Z,36.65
2023-01-21T23:00:28.458Z,36.33
2023-01-21T23:02:56.051Z,36.20
2023-01-21T23:05:23.158Z,36.13
2023-01-21T23:07:50.710Z,36.47
2023-01-21T23:10:18.741Z,36.06
2023-01-21T23:12:46.133Z,36.00
2023-01-21T23:15:16.519Z,36.10
2023-01-21T23:17:44.483Z,36.16
2023-01-21T23:20:11.809Z,35.97
2023-01-21T23:22:39.105Z,36.13
2023-01-21T23:25:06.615Z,36.17
2023-01-21T23:27:34.366Z,35.72
2023-01-21T23:30:01.599Z,36.33
2023-01-21T23:32:28.767Z,35.83
2023-01-21T23:34:55.865Z,35.91
2023-01-21T23:37:22.787Z,36.25
2023-01-21T23:39:49.947Z,36.56
2023-01-21T23:42:17.468Z,36.58
2023-01-21T23:44:44.455Z,36.33
2023-01-21T23:47:11.513Z,36.24
2023-01-21T23:49:38.645Z,36.56
2023-01-21T23:52:06.902Z,36.16
2023-01-21T23:54:34.336Z,36.22
2023-01-21T23:57:01.501Z,36.17
2023-01-21T23:59:28.463Z,36.17
